Time;durP1;ratioP1;P1;durP2;ratioP2;P2;SDS_P1;SDS_P2;PMS_P1;PMS_P2;Temp;Humidity;BMP_temperature;BMP_pressure;BME280_temperature;BME280_humidity;BME280_pressure;Samples;Min_cycle;Max_cycle;Signal;HPM_P1;HPM_P2
2022/01/28 00:05:22;;;;;;;13.65;2.38;;;6.00;99.90;;;;;;5047218;28;20033;-42
2022/01/28 00:07:49;;;;;;;17.67;2.40;;;6.00;99.90;;;;;;5047516;28;20021;-43
2022/01/28 00:10:15;;;;;;;11.73;2.00;;;6.00;99.90;;;;;;5046367;28;20425;-43
2022/01/28 00:13:21;;;;;;;11.40;2.15;;;6.00;99.90;;;;;;5047509;28;20036;-42
2022/01/28 00:18:43;;;;;;;10.40;2.05;;;6.00;99.90;;;;;;5046111;28;20093;-44
2022/01/28 00:39:47;;;;;;;4.57;1.50;;;5.80;99.90;;;;;;5046951;28;20515;-43
2022/01/28 00:42:13;;;;;;;10.93;1.77;;;5.70;99.90;;;;;;5046851;28;20051;-42
2022/01/28 00:44:39;;;;;;;10.02;2.50;;;5.70;99.90;;;;;;5046652;28;20024;-43
2022/01/28 00:47:05;;;;;;;11.10;2.08;;;5.70;99.90;;;;;;5047195;28;20029;-43
2022/01/28 00:49:31;;;;;;;13.60;2.05;;;5.70;99.90;;;;;;5046517;28;20104;-43
2022/01/28 00:51:56;;;;;;;12.45;2.10;;;5.60;99.90;;;;;;5046676;28;20095;-42
2022/01/28 00:54:23;;;;;;;13.80;1.98;;;5.50;99.90;;;;;;5048952;28;20025;-43
2022/01/28 00:56:48;;;;;;;6.20;1.77;;;5.60;99.90;;;;;;5050442;28;20400;-42
2022/01/28 00:59:15;;;;;;;9.73;2.35;;;5.50;99.90;;;;;;5049478;28;20025;-43
2022/01/28 01:01:41;;;;;;;9.77;1.75;;;5.50;99.90;;;;;;5050693;28;20042;-42
2022/01/28 01:04:07;;;;;;;13.20;2.35;;;5.50;99.90;;;;;;5050663;28;20147;-43
2022/01/28 01:06:33;;;;;;;12.75;2.22;;;5.50;99.90;;;;;;5049671;28;20526;-43
2022/01/28 01:09:00;;;;;;;11.30;2.05;;;5.50;99.90;;;;;;5050564;28;20100;-42
2022/01/28 01:11:26;;;;;;;12.68;2.15;;;5.50;99.90;;;;;;5049344;28;20447;-45
2022/01/28 01:13:53;;;;;;;8.63;2.22;;;5.40;99.90;;;;;;5050402;28;20086;-43
2022/01/28 01:16:28;;;;;;;9.50;1.80;;;5.40;99.90;;;;;;5049703;28;20075;-43
2022/01/28 01:19:12;;;;;;;12.15;2.40;;;5.40;99.90;;;;;;5030691;28;20035;-43
2022/01/28 01:21:40;;;;;;;4.95;1.35;;;5.40;99.90;;;;;;5047146;28;20082;-47
2022/01/28 01:24:08;;;;;;;9.55;1.67;;;5.40;99.90;;;;;;5050382;28;20053;-43
2022/01/28 01:26:35;;;;;;;6.38;1.42;;;5.30;99.90;;;;;;5049759;28;20044;-43
2022/01/28 01:29:02;;;;;;;11.13;2.53;;;5.30;99.90;;;;;;5049405;28;20484;-42
2022/01/28 01:31:28;;;;;;;6.68;1.67;;;5.30;99.90;;;;;;5049460;28;20021;-43
2022/01/28 01:34:04;;;;;;;12.32;2.25;;;5.30;99.90;;;;;;5050284;28;20020;-43
2022/01/28 01:36:30;;;;;;;10.95;2.13;;;5.30;99.90;;;;;;5048587;28;20029;-42
2022/01/28 01:38:55;;;;;;;11.75;2.08;;;5.30;99.90;;;;;;5050034;28;20025;-43
2022/01/28 01:41:33;;;;;;;9.45;1.45;;;5.30;99.90;;;;;;5049019;28;20040;-43
2022/01/28 01:44:27;;;;;;;11.25;2.47;;;5.40;99.90;;;;;;5049747;28;20464;-44
2022/01/28 01:52:38;;;;;;;10.18;2.60;;;5.30;99.90;;;;;;5047381;28;20059;-43
2022/01/28 01:55:05;;;;;;;6.70;1.45;;;5.30;99.90;;;;;;5049441;28;20119;-43
2022/01/28 01:57:30;;;;;;;8.10;2.35;;;5.30;99.90;;;;;;5048237;28;20044;-43
2022/01/28 01:59:56;;;;;;;9.48;1.70;;;5.20;99.90;;;;;;5049541;28;20021;-43
2022/01/28 02:02:21;;;;;;;15.27;2.20;;;5.20;99.90;;;;;;5048980;28;20027;-43
2022/01/28 02:04:47;;;;;;;12.20;1.80;;;5.20;99.90;;;;;;5047950;28;20039;-43
2022/01/28 02:07:15;;;;;;;10.32;2.22;;;5.20;99.90;;;;;;5048969;28;20611;-43
2022/01/28 02:09:41;;;;;;;14.23;3.17;;;5.20;99.90;;;;;;5048795;28;20029;-43
2022/01/28 02:12:07;;;;;;;7.10;2.10;;;5.20;99.90;;;;;;5049502;28;20037;-43
2022/01/28 02:14:33;;;;;;;12.40;2.38;;;5.20;99.90;;;;;;5048925;28;20083;-44
2022/01/28 02:16:59;;;;;;;11.30;1.60;;;5.30;99.90;;;;;;5048503;28;20028;-43
2022/01/28 02:19:24;;;;;;;9.45;1.98;;;5.30;99.90;;;;;;5048883;28;20055;-42
2022/01/28 02:21:52;;;;;;;14.52;2.20;;;5.30;99.90;;;;;;5048686;28;20530;-42
2022/01/28 02:24:24;;;;;;;16.38;3.35;;;5.30;99.90;;;;;;5047840;28;20096;-44
2022/01/28 02:26:50;;;;;;;7.85;1.85;;;5.30;99.90;;;;;;5049277;28;20029;-43
2022/01/28 02:29:26;;;;;;;11.10;2.05;;;5.30;99.90;;;;;;5048158;28;20138;-42
2022/01/28 02:31:52;;;;;;;8.65;1.92;;;5.30;99.90;;;;;;5048700;28;20071;-42
2022/01/28 02:34:17;;;;;;;10.63;2.92;;;5.30;99.90;;;;;;5047696;28;20045;-44
2022/01/28 02:36:43;;;;;;;11.55;1.85;;;5.30;99.90;;;;;;5049031;28;20037;-42
2022/01/28 02:39:10;;;;;;;11.00;2.05;;;5.30;99.90;;;;;;5047471;28;20048;-43
2022/01/28 02:41:40;;;;;;;9.75;1.77;;;5.30;99.90;;;;;;5048875;28;20032;-44
2022/01/28 02:44:18;;;;;;;12.90;1.80;;;5.30;99.90;;;;;;5046816;28;20511;-43
2022/01/28 02:47:00;;;;;;;9.35;2.83;;;5.30;99.90;;;;;;5028006;28;20551;-43
2022/01/28 02:49:28;;;;;;;8.10;1.85;;;5.30;99.90;;;;;;5044150;28;20037;-43
2022/01/28 02:51:57;;;;;;;11.88;1.92;;;5.30;99.90;;;;;;5027987;28;20121;-42
2022/01/28 02:54:23;;;;;;;10.70;1.67;;;5.30;99.90;;;;;;5042541;28;20033;-42
2022/01/28 02:56:52;;;;;;;11.35;1.60;;;5.30;99.90;;;;;;5048668;28;20183;-43
2022/01/28 02:59:18;;;;;;;5.88;1.38;;;5.20;99.90;;;;;;5047487;28;20120;-43
2022/01/28 03:01:44;;;;;;;7.38;1.75;;;5.20;99.90;;;;;;5048092;28;20639;-42
2022/01/28 03:04:18;;;;;;;6.25;1.27;;;5.20;99.90;;;;;;5047407;28;20060;-42
2022/01/28 03:06:44;;;;;;;10.77;1.42;;;5.20;99.90;;;;;;5048144;28;20044;-42
2022/01/28 03:09:17;;;;;;;9.48;1.58;;;5.20;99.90;;;;;;5047901;28;20039;-43
2022/01/28 03:11:45;;;;;;;6.53;1.50;;;5.10;99.90;;;;;;5048212;28;20067;-43
2022/01/28 03:17:48;;;;;;;7.40;1.73;;;5.10;99.90;;;;;;5048160;28;20052;-43
2022/01/28 03:20:17;;;;;;;6.95;1.38;;;5.10;99.90;;;;;;5046898;28;20186;-43
2022/01/28 03:22:43;;;;;;;15.23;1.67;;;5.10;99.90;;;;;;5048021;28;20020;-43
2022/01/28 03:25:09;;;;;;;4.75;1.30;;;5.10;99.90;;;;;;5047120;28;20036;-43
2022/01/28 03:27:51;;;;;;;7.30;2.67;;;5.10;99.90;;;;;;5047474;28;20028;-42
2022/01/28 03:30:17;;;;;;;10.10;1.67;;;5.20;99.90;;;;;;5047075;28;20426;-43
2022/01/28 03:32:43;;;;;;;9.13;2.20;;;5.20;99.90;;;;;;5047723;28;20025;-43
2022/01/28 03:35:10;;;;;;;9.82;2.15;;;5.20;99.90;;;;;;5047050;28;20052;-42
2022/01/28 03:37:36;;;;;;;7.95;2.15;;;5.20;99.90;;;;;;5047393;28;20040;-43
2022/01/28 03:40:04;;;;;;;8.30;1.60;;;5.20;99.90;;;;;;5047584;28;20013;-43
2022/01/28 03:42:30;;;;;;;8.05;1.52;;;5.20;99.90;;;;;;5046899;28;20085;-42
2022/01/28 03:44:55;;;;;;;10.00;1.58;;;5.20;99.90;;;;;;5048028;28;20017;-42
2022/01/28 03:47:21;;;;;;;7.25;1.60;;;5.20;99.90;;;;;;5046774;28;20021;-42
2022/01/28 03:49:47;;;;;;;7.47;1.35;;;5.10;99.90;;;;;;5047167;28;20478;-42
2022/01/28 03:52:12;;;;;;;8.25;1.33;;;5.10;99.90;;;;;;5046957;28;20056;-41
2022/01/28 03:54:38;;;;;;;11.40;1.80;;;5.10;99.90;;;;;;5047742;28;20713;-43
2022/01/28 03:57:04;;;;;;;5.78;1.63;;;5.10;99.90;;;;;;5047142;28;20029;-42
2022/01/28 03:59:30;;;;;;;6.97;1.63;;;5.00;99.90;;;;;;5047147;28;20514;-43
2022/01/28 04:01:56;;;;;;;9.15;1.65;;;5.00;99.90;;;;;;5047498;28;20022;-43
2022/01/28 04:05:26;;;;;;;13.05;1.95;;;5.00;99.90;;;;;;5046647;28;20472;-42
2022/01/28 04:12:45;;;;;;;9.25;1.60;;;4.90;99.90;;;;;;5047216;28;20090;-42
2022/01/28 04:17:46;;;;;;;6.70;1.13;;;4.90;99.90;;;;;;5046829;28;20033;-43
2022/01/28 04:20:12;;;;;;;7.15;1.33;;;4.90;99.90;;;;;;5047676;28;20017;-41
2022/01/28 04:22:37;;;;;;;12.30;2.15;;;4.90;99.90;;;;;;5046658;28;20032;-43
2022/01/28 04:25:03;;;;;;;9.43;1.52;;;4.90;99.90;;;;;;5047284;28;20063;-43
2022/01/28 04:27:29;;;;;;;8.13;1.85;;;4.90;99.90;;;;;;5046803;28;20048;-43
2022/01/28 04:29:54;;;;;;;9.43;1.90;;;4.90;99.90;;;;;;5051283;28;20021;-43
2022/01/28 04:32:21;;;;;;;14.00;2.28;;;4.90;99.90;;;;;;5050109;28;20063;-43
2022/01/28 04:34:46;;;;;;;10.55;2.08;;;5.00;99.90;;;;;;5051170;28;20104;-42
2022/01/28 04:39:53;;;;;;;8.38;1.50;;;5.00;99.90;;;;;;5051127;28;20033;-42
2022/01/28 04:44:57;;;;;;;7.13;1.70;;;4.90;99.90;;;;;;5050993;28;20091;-42
2022/01/28 04:47:35;;;;;;;10.13;1.60;;;4.90;99.90;;;;;;5050537;28;20021;-43
2022/01/28 04:50:32;;;;;;;8.50;1.52;;;4.90;99.90;;;;;;5050578;28;20555;-43
2022/01/28 04:53:05;;;;;;;10.40;1.50;;;4.80;99.90;;;;;;5049923;28;20053;-43
2022/01/28 05:06:36;;;;;;;9.75;1.88;;;4.70;99.90;;;;;;5050136;28;20476;-42
2022/01/28 05:14:14;;;;;;;9.52;1.27;;;4.70;99.90;;;;;;5050012;28;20032;-43
2022/01/28 05:27:20;;;;;;;13.55;2.30;;;4.60;99.90;;;;;;5049433;28;20033;-42
2022/01/28 05:29:45;;;;;;;7.18;1.55;;;4.60;99.90;;;;;;5049898;28;20021;-42
2022/01/28 05:32:11;;;;;;;9.65;1.88;;;4.60;99.90;;;;;;5050015;28;20024;-42
2022/01/28 05:34:38;;;;;;;5.97;1.25;;;4.50;99.90;;;;;;5048893;28;20070;-42
2022/01/28 05:37:04;;;;;;;8.50;1.77;;;4.60;99.90;;;;;;5050038;28;20087;-42
2022/01/28 05:39:30;;;;;;;11.25;1.50;;;4.60;99.90;;;;;;5049168;28;20111;-43
2022/01/28 05:41:55;;;;;;;6.70;1.52;;;4.50;99.90;;;;;;5049519;28;20028;-42
2022/01/28 05:44:22;;;;;;;6.22;1.20;;;4.50;99.90;;;;;;5049054;28;20056;-43
2022/01/28 05:46:47;;;;;;;6.40;1.80;;;4.50;99.90;;;;;;5049854;28;20025;-44
2022/01/28 05:49:13;;;;;;;10.05;1.33;;;4.40;99.90;;;;;;5048788;28;20079;-42
2022/01/28 05:51:40;;;;;;;8.75;1.75;;;4.40;99.90;;;;;;5049706;28;20091;-43
2022/01/28 05:54:05;;;;;;;6.82;1.40;;;4.40;99.90;;;;;;5049911;28;20033;-43
2022/01/28 05:56:31;;;;;;;7.05;1.48;;;4.40;99.90;;;;;;5048612;28;20396;-44
2022/01/28 05:58:58;;;;;;;5.43;1.10;;;4.40;99.90;;;;;;5049706;28;20514;-43
2022/01/28 06:01:23;;;;;;;12.48;1.92;;;4.40;99.90;;;;;;5048595;28;20041;-43
2022/01/28 06:03:49;;;;;;;7.05;1.50;;;4.40;99.90;;;;;;5049307;28;20048;-42
2022/01/28 06:06:19;;;;;;;11.10;1.40;;;4.50;99.90;;;;;;5048729;28;20075;-43
2022/01/28 06:08:50;;;;;;;7.57;1.55;;;4.60;99.90;;;;;;5049042;28;20033;-43
2022/01/28 06:11:16;;;;;;;11.65;2.28;;;4.70;99.90;;;;;;5048355;28;20029;-42
2022/01/28 06:13:42;;;;;;;9.57;1.17;;;4.80;99.90;;;;;;5049487;28;20028;-42
2022/01/28 06:16:09;;;;;;;7.72;1.35;;;4.90;99.90;;;;;;5048579;28;20032;-43
2022/01/28 06:18:35;;;;;;;8.77;1.70;;;4.90;99.90;;;;;;5049158;28;20064;-44
2022/01/28 06:21:02;;;;;;;7.22;1.30;;;5.00;99.90;;;;;;5049281;28;20032;-43
2022/01/28 06:23:27;;;;;;;6.63;1.60;;;5.00;99.90;;;;;;5048197;28;20124;-43
2022/01/28 06:25:53;;;;;;;4.22;1.23;;;5.10;99.90;;;;;;5049233;28;20108;-43
2022/01/28 06:28:18;;;;;;;8.57;1.40;;;5.10;99.90;;;;;;5048461;28;20468;-43
2022/01/28 06:30:44;;;;;;;5.50;1.17;;;5.10;99.90;;;;;;5048387;28;20025;-43
2022/01/28 06:33:13;;;;;;;6.95;1.55;;;5.10;99.90;;;;;;5048513;28;20037;-43
2022/01/28 06:35:43;;;;;;;7.78;1.45;;;5.10;99.90;;;;;;5048687;28;20068;-42
2022/01/28 06:38:09;;;;;;;9.50;1.92;;;5.10;99.90;;;;;;5037464;28;20511;-43
2022/01/28 06:40:35;;;;;;;11.98;1.40;;;5.10;99.90;;;;;;5048305;28;20104;-42
2022/01/28 06:43:00;;;;;;;7.97;1.63;;;5.10;99.90;;;;;;5048406;28;20033;-42
2022/01/28 06:45:26;;;;;;;9.98;1.70;;;5.10;99.90;;;;;;5062242;28;20107;-42
2022/01/28 06:47:52;;;;;;;9.63;1.58;;;5.00;99.90;;;;;;5046154;28;20029;-44
2022/01/28 06:50:17;;;;;;;6.20;1.20;;;5.00;99.90;;;;;;5046435;28;20107;-43
2022/01/28 06:52:44;;;;;;;9.13;1.50;;;4.90;99.90;;;;;;5044709;28;20675;-43
2022/01/28 06:55:11;;;;;;;6.93;1.57;;;4.90;99.90;;;;;;5047249;28;20495;-42
2022/01/28 06:57:37;;;;;;;5.85;1.27;;;4.80;99.90;;;;;;5046477;28;20036;-43
2022/01/28 07:00:06;;;;;;;8.90;1.67;;;4.70;99.90;;;;;;5047358;28;20029;-43
2022/01/28 07:02:31;;;;;;;8.20;1.83;;;4.60;99.90;;;;;;5046436;28;20021;-44
2022/01/28 07:04:58;;;;;;;7.13;1.50;;;4.50;99.90;;;;;;5047430;28;20083;-41
2022/01/28 07:07:25;;;;;;;9.20;1.60;;;4.50;99.90;;;;;;5046702;28;20366;-44
2022/01/28 07:09:51;;;;;;;8.15;1.50;;;4.40;99.90;;;;;;5047511;28;20076;-44
2022/01/28 07:12:17;;;;;;;7.45;1.20;;;4.30;99.90;;;;;;5046104;28;20441;-43
2022/01/28 07:14:43;;;;;;;6.70;1.50;;;4.30;99.90;;;;;;5047750;28;20376;-43
2022/01/28 07:17:09;;;;;;;4.05;1.15;;;4.20;99.90;;;;;;5046833;28;20476;-43
2022/01/28 07:19:35;;;;;;;6.53;1.98;;;4.20;99.90;;;;;;5046586;28;20029;-44
2022/01/28 07:22:00;;;;;;;8.20;1.55;;;4.20;99.90;;;;;;5048100;28;20104;-43
2022/01/28 07:24:26;;;;;;;7.28;1.45;;;4.20;99.90;;;;;;5048023;28;20044;-43
2022/01/28 07:26:52;;;;;;;6.53;1.30;;;4.20;99.90;;;;;;5046786;28;20029;-43
2022/01/28 07:29:18;;;;;;;7.47;1.50;;;4.30;99.90;;;;;;5047074;28;20456;-43
2022/01/28 07:31:44;;;;;;;6.18;1.45;;;4.30;99.90;;;;;;5046488;28;20029;-43
2022/01/28 07:34:10;;;;;;;5.03;1.35;;;4.30;99.90;;;;;;5045693;28;20033;-43
2022/01/28 07:36:37;;;;;;;7.70;1.45;;;4.30;99.90;;;;;;5048052;28;20530;-43
2022/01/28 07:39:05;;;;;;;6.28;1.50;;;4.30;99.90;;;;;;5046736;28;20025;-42
2022/01/28 07:41:31;;;;;;;8.68;2.05;;;4.30;99.90;;;;;;5045777;28;20369;-42
2022/01/28 07:43:57;;;;;;;3.67;1.25;;;4.30;99.90;;;;;;5046656;28;20024;-43
2022/01/28 07:46:28;;;;;;;4.90;1.48;;;4.40;99.90;;;;;;5046409;28;20032;-43
2022/01/28 07:48:54;;;;;;;7.72;1.50;;;4.40;99.90;;;;;;5046368;28;20039;-42
2022/01/28 07:51:19;;;;;;;6.82;1.77;;;4.40;99.90;;;;;;5046577;28;20045;-43
2022/01/28 07:53:45;;;;;;;6.45;1.45;;;4.50;99.90;;;;;;5046988;28;20029;-43
2022/01/28 07:56:12;;;;;;;5.55;1.50;;;4.50;99.90;;;;;;5046583;28;20492;-43
2022/01/28 07:58:37;;;;;;;6.43;1.45;;;4.60;99.90;;;;;;5043625;28;20025;-43
2022/01/28 08:01:03;;;;;;;4.18;1.30;;;4.50;99.90;;;;;;5042932;28;20028;-43
2022/01/28 08:03:29;;;;;;;7.57;1.60;;;4.50;99.90;;;;;;5047897;28;20035;-42
2022/01/28 08:05:54;;;;;;;7.47;1.60;;;4.40;99.90;;;;;;5050498;28;20028;-42
2022/01/28 08:08:21;;;;;;;5.15;1.70;;;4.30;99.90;;;;;;5049683;28;20075;-42
2022/01/28 08:10:47;;;;;;;8.73;2.03;;;4.20;99.90;;;;;;5047512;28;20074;-43
2022/01/28 08:13:12;;;;;;;9.48;2.00;;;4.20;99.90;;;;;;5050015;28;20091;-42
2022/01/28 08:15:40;;;;;;;7.25;2.10;;;4.20;99.90;;;;;;5046990;28;20486;-43
2022/01/28 08:18:09;;;;;;;5.65;1.70;;;4.20;99.90;;;;;;5048652;28;20025;-44
2022/01/28 08:20:35;;;;;;;7.55;1.77;;;4.20;99.90;;;;;;5047984;28;20115;-43
2022/01/28 08:23:02;;;;;;;7.57;1.90;;;4.20;99.90;;;;;;5048484;28;20107;-44
2022/01/28 08:25:29;;;;;;;7.63;1.80;;;4.20;99.90;;;;;;5048181;28;20657;-42
2022/01/28 08:27:55;;;;;;;5.30;1.70;;;4.20;99.90;;;;;;5047763;28;20041;-43
2022/01/28 08:30:23;;;;;;;8.52;2.10;;;4.10;99.90;;;;;;5046265;28;20440;-44
2022/01/28 08:32:49;;;;;;;10.75;2.35;;;4.10;99.90;;;;;;5048440;28;20041;-43
2022/01/28 08:35:16;;;;;;;7.88;1.90;;;4.10;99.90;;;;;;5049296;28;20104;-43
2022/01/28 08:37:42;;;;;;;6.45;1.50;;;4.10;99.90;;;;;;5050037;28;20095;-42
2022/01/28 08:40:09;;;;;;;7.18;2.00;;;4.10;99.90;;;;;;5049767;28;20032;-42
2022/01/28 08:42:35;;;;;;;7.18;1.70;;;4.10;99.90;;;;;;5048687;28;20040;-43
2022/01/28 08:45:01;;;;;;;7.95;1.40;;;4.20;99.90;;;;;;5044513;28;20150;-43
2022/01/28 08:47:27;;;;;;;7.32;1.70;;;4.20;99.90;;;;;;5049331;28;20490;-43
2022/01/28 08:49:52;;;;;;;9.75;2.42;;;4.30;99.90;;;;;;5050174;28;20036;-42
2022/01/28 08:52:18;;;;;;;10.60;2.20;;;4.30;99.90;;;;;;5048739;28;20046;-43
2022/01/28 08:54:43;;;;;;;10.05;2.55;;;4.40;99.90;;;;;;5050196;28;20079;-42
2022/01/28 08:57:09;;;;;;;5.38;1.40;;;4.40;99.90;;;;;;5042347;28;20045;-42
2022/01/28 08:59:35;;;;;;;11.45;1.85;;;4.50;99.90;;;;;;5049276;28;20090;-44
2022/01/28 09:02:01;;;;;;;8.93;1.50;;;4.60;99.90;;;;;;5049576;28;20032;-43
2022/01/28 09:04:26;;;;;;;11.35;2.30;;;4.60;99.90;;;;;;5049212;28;20021;-42
2022/01/28 09:06:52;;;;;;;10.48;1.77;;;4.70;99.90;;;;;;5049370;28;20021;-43
2022/01/28 09:09:19;;;;;;;7.05;1.40;;;4.80;99.90;;;;;;5049207;28;20095;-43
2022/01/28 09:11:52;;;;;;;7.20;1.70;;;4.90;99.90;;;;;;5049416;28;20025;-43
2022/01/28 09:14:20;;;;;;;11.48;2.03;;;4.90;99.90;;;;;;5049307;28;20029;-43
2022/01/28 09:16:46;;;;;;;8.07;1.80;;;4.90;99.90;;;;;;5049012;28;20478;-44
2022/01/28 09:19:11;;;;;;;7.20;1.92;;;5.00;99.90;;;;;;5049056;28;20060;-43
2022/01/28 09:21:37;;;;;;;5.43;1.70;;;5.00;99.90;;;;;;5049177;28;20029;-42
2022/01/28 09:24:03;;;;;;;10.30;1.65;;;5.10;99.90;;;;;;5049326;28;20047;-43
2022/01/28 09:26:29;;;;;;;8.32;2.33;;;5.10;99.90;;;;;;5048602;28;20020;-43
2022/01/28 09:28:55;;;;;;;10.55;2.20;;;5.10;99.90;;;;;;5047508;28;20028;-42
2022/01/28 09:31:21;;;;;;;9.77;2.15;;;5.20;99.90;;;;;;5048399;28;20013;-43
2022/01/28 09:33:46;;;;;;;10.05;2.42;;;5.30;99.90;;;;;;5049267;28;20017;-43
2022/01/28 09:36:12;;;;;;;14.13;3.05;;;5.30;99.90;;;;;;5048709;28;20119;-42
2022/01/28 09:38:37;;;;;;;12.25;2.45;;;5.40;99.90;;;;;;5048856;28;20025;-43
2022/01/28 09:41:05;;;;;;;9.25;1.98;;;5.40;99.90;;;;;;5048600;28;20107;-43
2022/01/28 09:43:31;;;;;;;9.45;2.35;;;5.50;99.90;;;;;;5051802;28;20082;-43
2022/01/28 09:45:57;;;;;;;10.13;2.00;;;5.60;99.90;;;;;;5049394;28;20315;-43
2022/01/28 09:48:23;;;;;;;10.07;1.90;;;5.60;99.90;;;;;;5047600;28;20491;-44
2022/01/28 09:50:49;;;;;;;10.40;1.58;;;5.70;99.90;;;;;;5048408;28;20025;-43
2022/01/28 09:53:15;;;;;;;9.82;1.70;;;5.70;99.90;;;;;;5048234;28;20048;-43
2022/01/28 09:55:41;;;;;;;11.95;2.13;;;5.70;99.90;;;;;;5048031;28;20534;-42
2022/01/28 09:58:07;;;;;;;9.88;2.13;;;5.80;99.90;;;;;;5048364;28;20476;-43
2022/01/28 10:00:34;;;;;;;10.63;1.98;;;5.90;99.90;;;;;;5048520;28;20032;-43
2022/01/28 10:03:05;;;;;;;7.95;2.17;;;5.90;99.90;;;;;;5047491;28;20032;-43
2022/01/28 10:05:32;;;;;;;10.05;2.38;;;5.90;99.90;;;;;;5048015;28;20092;-43
2022/01/28 10:08:12;;;;;;;9.52;2.00;;;6.00;99.90;;;;;;5048547;28;20100;-42
2022/01/28 10:11:03;;;;;;;11.18;2.33;;;6.10;99.90;;;;;;5048481;28;20039;-44
2022/01/28 10:16:26;;;;;;;11.18;2.15;;;6.20;99.90;;;;;;5048081;28;20132;-43
2022/01/28 10:19:09;;;;;;;7.85;2.13;;;6.30;99.90;;;;;;5048459;28;20060;-43
2022/01/28 10:21:39;;;;;;;7.20;2.22;;;6.30;99.90;;;;;;5048378;28;20353;-43
2022/01/28 10:24:07;;;;;;;13.13;2.85;;;6.30;99.90;;;;;;5047843;28;20037;-42
2022/01/28 10:26:47;;;;;;;11.18;2.30;;;6.40;99.90;;;;;;5046954;28;20091;-42
2022/01/28 10:29:30;;;;;;;8.82;1.58;;;6.40;99.90;;;;;;5047641;28;20072;-43
2022/01/28 10:32:10;;;;;;;16.13;2.00;;;6.50;99.90;;;;;;5048234;28;20029;-43
2022/01/28 10:34:37;;;;;;;6.75;1.50;;;6.50;99.90;;;;;;5047574;28;20021;-42
2022/01/28 10:37:10;;;;;;;8.98;1.80;;;6.60;99.90;;;;;;5047768;28;20073;-43
2022/01/28 10:39:48;;;;;;;8.68;1.88;;;6.60;99.90;;;;;;5047928;28;20021;-43
2022/01/28 10:42:16;;;;;;;9.15;1.63;;;6.70;99.90;;;;;;5046547;28;20033;-43
2022/01/28 10:44:59;;;;;;;10.55;2.25;;;6.70;99.90;;;;;;5047422;28;20020;-44
2022/01/28 10:47:39;;;;;;;11.48;1.83;;;6.70;99.90;;;;;;5047189;28;20032;-43
2022/01/28 10:50:28;;;;;;;12.43;2.47;;;6.80;99.90;;;;;;5047763;28;20086;-43
2022/01/28 10:53:04;;;;;;;13.07;2.20;;;6.90;99.90;;;;;;5027629;28;20091;-43
2022/01/28 10:55:32;;;;;;;13.63;3.20;;;6.90;99.90;;;;;;5042069;28;20037;-42
2022/01/28 10:58:05;;;;;;;8.13;1.75;;;7.00;99.90;;;;;;5047658;28;20472;-43
2022/01/28 11:00:33;;;;;;;10.68;2.10;;;7.00;99.90;;;;;;5047823;28;20099;-42
2022/01/28 11:03:01;;;;;;;10.98;2.10;;;7.10;99.90;;;;;;5047462;28;20037;-42
2022/01/28 11:05:29;;;;;;;12.10;1.83;;;7.20;99.90;;;;;;5046442;28;20083;-42
2022/01/28 11:07:56;;;;;;;10.90;1.77;;;7.30;99.90;;;;;;5047863;28;20616;-43
2022/01/28 11:10:21;;;;;;;12.15;2.00;;;7.40;99.90;;;;;;5046976;28;20163;-42
2022/01/28 11:12:47;;;;;;;11.10;1.75;;;7.40;99.90;;;;;;5047267;28;20567;-43
2022/01/28 11:15:12;;;;;;;7.50;1.65;;;7.40;99.90;;;;;;5045784;28;20488;-43
2022/01/28 11:17:38;;;;;;;16.13;2.33;;;7.60;99.90;;;;;;5047681;28;20450;-43
2022/01/28 11:20:06;;;;;;;13.15;1.98;;;7.60;99.90;;;;;;5046615;28;20562;-42
2022/01/28 11:22:55;;;;;;;9.10;1.52;;;7.60;99.90;;;;;;5046604;28;20075;-43
2022/01/28 11:25:38;;;;;;;9.73;2.03;;;7.60;99.90;;;;;;5045648;28;20029;-42
2022/01/28 11:28:11;;;;;;;13.57;2.03;;;7.60;99.90;;;;;;5047431;28;20025;-45
2022/01/28 11:30:45;;;;;;;8.88;2.20;;;7.50;99.90;;;;;;5046613;28;20283;-43
2022/01/28 11:33:11;;;;;;;18.42;2.83;;;7.50;99.90;;;;;;5046302;28;20032;-42
2022/01/28 11:35:52;;;;;;;11.20;2.13;;;7.50;99.90;;;;;;5044340;28;20028;-43
2022/01/28 11:38:27;;;;;;;8.93;2.00;;;7.50;99.90;;;;;;5039954;28;20091;-43
2022/01/28 11:40:55;;;;;;;12.05;2.22;;;7.50;99.90;;;;;;5046668;28;20044;-42
2022/01/28 11:43:29;;;;;;;7.65;1.90;;;7.50;99.90;;;;;;5045967;28;20383;-42
2022/01/28 11:46:24;;;;;;;12.45;2.20;;;7.50;99.90;;;;;;5046964;28;20528;-43
2022/01/28 11:48:52;;;;;;;10.40;1.92;;;7.60;99.90;;;;;;5038962;28;20848;-43
2022/01/28 11:51:23;;;;;;;10.80;2.28;;;7.60;99.90;;;;;;5045756;28;20046;-43
2022/01/28 11:53:58;;;;;;;8.95;1.70;;;7.70;99.90;;;;;;5046460;28;20059;-44
2022/01/28 11:56:24;;;;;;;7.85;1.52;;;7.80;99.90;;;;;;5046150;28;20473;-42
2022/01/28 11:58:57;;;;;;;7.65;1.75;;;7.90;99.90;;;;;;5046817;28;20037;-43
2022/01/28 12:01:24;;;;;;;11.63;1.52;;;8.00;99.90;;;;;;5045773;28;20055;-44
2022/01/28 12:03:50;;;;;;;9.48;1.58;;;8.10;99.90;;;;;;5046475;28;20029;-43
2022/01/28 12:06:17;;;;;;;5.55;1.60;;;8.20;99.90;;;;;;5046443;28;20102;-43
2022/01/28 12:08:50;;;;;;;7.00;1.50;;;8.30;99.90;;;;;;5043005;28;20043;-41
2022/01/28 12:11:42;;;;;;;10.13;2.25;;;8.40;99.90;;;;;;5046372;28;20051;-43
2022/01/28 12:14:12;;;;;;;14.73;3.00;;;8.40;99.90;;;;;;5051551;28;20028;-42
2022/01/28 12:16:42;;;;;;;5.15;1.40;;;8.50;99.90;;;;;;5027583;28;20537;-43
2022/01/28 12:19:33;;;;;;;5.90;1.52;;;8.50;99.90;;;;;;5046098;28;20106;-43
2022/01/28 12:22:10;;;;;;;9.93;2.00;;;8.60;99.90;;;;;;5045118;28;20377;-42
2022/01/28 12:24:37;;;;;;;8.43;1.52;;;8.60;99.90;;;;;;5045929;28;20064;-44
2022/01/28 12:27:04;;;;;;;12.43;1.80;;;8.60;99.90;;;;;;5046660;28;20025;-43
2022/01/28 12:29:32;;;;;;;6.72;1.60;;;8.50;99.90;;;;;;5045544;28;20104;-43
2022/01/28 12:31:59;;;;;;;5.75;1.25;;;8.50;99.90;;;;;;5046245;28;20649;-43
2022/01/28 12:34:25;;;;;;;8.48;1.67;;;8.50;99.90;;;;;;5044718;28;20025;-43
2022/01/28 12:36:51;;;;;;;10.80;1.60;;;8.50;99.90;;;;;;5045898;28;20111;-42
2022/01/28 12:39:31;;;;;;;5.30;1.50;;;8.50;99.90;;;;;;5045514;28;20017;-43
2022/01/28 12:42:05;;;;;;;4.72;1.17;;;8.50;99.90;;;;;;5046696;28;20040;-44
2022/01/28 12:44:32;;;;;;;10.40;1.55;;;8.50;99.90;;;;;;5045501;28;20108;-42
2022/01/28 12:47:01;;;;;;;5.82;1.38;;;8.50;99.90;;;;;;5046497;28;20028;-42
2022/01/28 12:49:33;;;;;;;7.18;1.38;;;8.60;99.90;;;;;;5047026;28;20017;-43
2022/01/28 12:52:02;;;;;;;9.55;1.60;;;8.70;99.90;;;;;;5030352;28;20049;-43
2022/01/28 12:54:36;;;;;;;7.47;1.17;;;8.80;99.90;;;;;;5044292;28;20052;-43
2022/01/28 12:57:02;;;;;;;7.70;1.75;;;8.80;99.90;;;;;;5049386;28;20041;-44
2022/01/28 12:59:28;;;;;;;6.78;1.50;;;8.80;99.90;;;;;;5049381;28;20025;-42
2022/01/28 13:01:54;;;;;;;7.82;1.60;;;8.80;99.90;;;;;;5049927;28;20047;-43
2022/01/28 13:04:23;;;;;;;6.03;1.48;;;8.70;99.90;;;;;;5048625;28;20056;-43
2022/01/28 13:09:17;;;;;;;10.43;2.33;;;8.50;99.90;;;;;;5049150;28;20029;-43
2022/01/28 13:11:44;;;;;;;8.05;1.70;;;8.40;99.90;;;;;;5049223;28;20230;-43
2022/01/28 13:14:11;;;;;;;6.93;1.90;;;8.40;99.90;;;;;;5048794;28;20114;-42
2022/01/28 13:16:39;;;;;;;8.10;1.30;;;8.40;99.90;;;;;;5049763;28;20037;-42
2022/01/28 13:19:06;;;;;;;7.20;2.00;;;8.50;99.90;;;;;;5049149;28;20021;-43
2022/01/28 13:21:33;;;;;;;7.53;1.80;;;8.60;99.90;;;;;;5048993;28;20025;-42
2022/01/28 13:24:16;;;;;;;8.32;1.40;;;8.70;99.90;;;;;;5049591;28;20039;-42
2022/01/28 13:26:59;;;;;;;8.60;2.03;;;8.90;99.90;;;;;;5048564;28;20108;-43
2022/01/28 13:29:34;;;;;;;5.05;1.63;;;9.00;99.90;;;;;;5048545;28;20033;-44
2022/01/28 13:32:08;;;;;;;5.03;1.40;;;9.10;99.90;;;;;;5038786;28;20040;-43
2022/01/28 13:34:48;;;;;;;8.15;1.50;;;9.10;99.90;;;;;;5048794;28;20124;-42
2022/01/28 13:37:43;;;;;;;6.25;1.40;;;9.20;99.90;;;;;;5038701;28;20037;-44
2022/01/28 13:40:18;;;;;;;4.90;1.40;;;9.20;99.90;;;;;;5048317;28;20482;-43
2022/01/28 13:43:02;;;;;;;5.70;1.10;;;9.30;99.90;;;;;;5048998;28;20029;-43
2022/01/28 13:45:51;;;;;;;8.95;1.98;;;9.40;99.90;;;;;;5047998;28;20079;-43
2022/01/28 13:48:36;;;;;;;6.70;1.63;;;9.30;99.90;;;;;;5048577;28;20020;-44
2022/01/28 13:51:11;;;;;;;8.68;1.50;;;9.30;99.90;;;;;;5048720;28;20024;-44
2022/01/28 13:56:37;;;;;;;9.00;1.60;;;9.20;99.90;;;;;;5047492;28;20392;-43
2022/01/28 13:59:14;;;;;;;11.68;2.45;;;9.10;99.90;;;;;;5049343;28;20023;-44
2022/01/28 14:01:44;;;;;;;10.10;3.00;;;9.00;99.90;;;;;;5048291;28;20516;-43
2022/01/28 14:04:27;;;;;;;13.60;3.97;;;8.90;99.90;;;;;;5048122;28;20392;-43
2022/01/28 14:07:11;;;;;;;8.82;2.92;;;8.80;99.90;;;;;;5044367;28;20025;-42
2022/01/28 14:09:55;;;;;;;8.57;2.45;;;8.80;99.90;;;;;;5028583;28;20036;-43
2022/01/28 14:12:29;;;;;;;10.35;2.53;;;8.80;99.90;;;;;;5044854;28;20033;-43
2022/01/28 14:15:08;;;;;;;5.55;2.25;;;8.90;99.90;;;;;;5048262;28;20017;-42
2022/01/28 14:17:34;;;;;;;8.20;1.70;;;8.90;99.90;;;;;;5047734;28;20041;-44
2022/01/28 14:19:59;;;;;;;4.45;1.50;;;8.90;99.90;;;;;;5048769;28;20376;-43
2022/01/28 14:22:25;;;;;;;6.82;1.75;;;8.90;99.90;;;;;;5046623;28;20025;-44
2022/01/28 14:24:51;;;;;;;9.70;1.98;;;8.90;99.90;;;;;;5047744;28;20070;-43
2022/01/28 14:29:54;;;;;;;6.18;1.55;;;8.90;99.90;;;;;;5047662;28;20033;-44